Time;durP1;ratioP1;P1;durP2;ratioP2;P2;SDS_P1;SDS_P2;PMS_P1;PMS_P2;Temp;Humidity;BMP_temperature;BMP_pressure;BME280_temperature;BME280_humidity;BME280_pressure;Samples;Min_cycle;Max_cycle;Signal;HPM_P1;HPM_P2
2021/05/28 00:01:02;;;;;;;6.20;3.83;;;;;;;;;;6150076;23;20033;-80
2021/05/28 00:03:47;;;;;;;8.80;5.10;;;;;;;;;;6148423;23;19998;-80
2021/05/28 00:06:33;;;;;;;8.80;5.18;;;;;;;;;;6148629;23;20076;-80
2021/05/28 00:09:18;;;;;;;6.75;5.38;;;;;;;;;;6148360;23;20003;-80
2021/05/28 00:12:03;;;;;;;8.60;5.72;;;;;;;;;;6148725;23;20000;-79
2021/05/28 00:14:49;;;;;;;8.73;5.03;;;;;;;;;;6127634;23;20046;-80
2021/05/28 00:17:34;;;;;;;9.38;5.35;;;;;;;;;;6149308;23;19998;-80
2021/05/28 00:20:20;;;;;;;8.60;6.38;;;;;;;;;;6147505;23;20028;-81
2021/05/28 00:23:05;;;;;;;9.27;6.78;;;;;;;;;;6150445;23;20005;-80
2021/05/28 00:25:50;;;;;;;9.15;6.05;;;;;;;;;;6147981;23;20001;-80
2021/05/28 00:28:36;;;;;;;9.43;6.78;;;;;;;;;;6149439;23;19997;-82
2021/05/28 00:31:21;;;;;;;8.30;6.78;;;;;;;;;;6148149;23;19993;-80
2021/05/28 00:34:06;;;;;;;10.05;6.95;;;;;;;;;;6170258;23;20008;-80
2021/05/28 00:36:52;;;;;;;10.00;6.78;;;;;;;;;;6168023;23;20605;-80
2021/05/28 00:39:37;;;;;;;10.65;7.47;;;;;;;;;;6149467;23;19997;-80
2021/05/28 00:42:25;;;;;;;13.50;7.00;;;;;;;;;;6169952;23;20025;-80
2021/05/28 00:45:10;;;;;;;9.85;6.68;;;;;;;;;;6147310;23;20001;-79
2021/05/28 00:47:56;;;;;;;9.25;6.53;;;;;;;;;;6146967;23;20001;-80
2021/05/28 00:50:42;;;;;;;9.55;6.35;;;;;;;;;;6146336;23;20553;-80
2021/05/28 00:53:28;;;;;;;9.88;6.25;;;;;;;;;;6149102;23;20080;-80
2021/05/28 00:56:14;;;;;;;8.65;5.55;;;;;;;;;;6168688;23;19998;-80
2021/05/28 00:59:02;;;;;;;8.07;5.75;;;;;;;;;;6149430;23;20317;-80
2021/05/28 01:01:48;;;;;;;9.85;6.07;;;;;;;;;;6146566;23;20382;-81
2021/05/28 01:04:33;;;;;;;8.63;6.43;;;;;;;;;;6128885;23;20483;-81
2021/05/28 01:07:21;;;;;;;7.50;5.47;;;;;;;;;;6170281;23;20033;-80
2021/05/28 01:10:07;;;;;;;9.13;5.45;;;;;;;;;;6148900;23;20013;-80
2021/05/28 01:12:52;;;;;;;6.72;4.70;;;;;;;;;;6168437;23;20319;-81
2021/05/28 01:15:38;;;;;;;6.82;4.78;;;;;;;;;;6148430;23;20020;-80
2021/05/28 01:18:24;;;;;;;11.27;4.72;;;;;;;;;;6147813;23;20064;-80
2021/05/28 01:21:09;;;;;;;7.15;4.68;;;;;;;;;;6149129;23;20346;-80
2021/05/28 01:23:54;;;;;;;6.95;4.75;;;;;;;;;;6168048;23;20390;-80
2021/05/28 01:26:39;;;;;;;9.18;4.65;;;;;;;;;;6168779;23;20001;-79
2021/05/28 01:29:25;;;;;;;7.20;4.35;;;;;;;;;;6149632;23;20422;-81
2021/05/28 01:32:10;;;;;;;7.22;4.60;;;;;;;;;;6143657;23;20005;-81
2021/05/28 01:34:55;;;;;;;7.00;4.78;;;;;;;;;;6149439;23;20024;-81
2021/05/28 01:37:42;;;;;;;6.22;4.13;;;;;;;;;;6169729;23;20561;-81
2021/05/28 01:40:27;;;;;;;5.20;3.92;;;;;;;;;;6171681;23;20044;-80
2021/05/28 01:43:12;;;;;;;6.65;3.67;;;;;;;;;;6147329;23;20147;-80
2021/05/28 01:45:57;;;;;;;7.03;4.55;;;;;;;;;;6181768;23;20336;-79
2021/05/28 01:48:43;;;;;;;5.50;3.92;;;;;;;;;;6168011;23;20001;-80
2021/05/28 01:51:28;;;;;;;5.22;3.70;;;;;;;;;;6166113;23;20001;-80
2021/05/28 01:54:14;;;;;;;5.72;3.67;;;;;;;;;;6180210;23;19997;-81
2021/05/28 01:57:06;;;;;;;5.20;3.70;;;;;;;;;;6176922;23;19993;-80
2021/05/28 01:59:52;;;;;;;5.45;2.80;;;;;;;;;;6166662;23;19997;-81
2021/05/28 02:02:37;;;;;;;6.65;3.45;;;;;;;;;;6149833;23;20021;-80
2021/05/28 02:05:22;;;;;;;6.18;3.55;;;;;;;;;;6169701;23;20038;-80
2021/05/28 02:08:07;;;;;;;5.10;3.28;;;;;;;;;;6171353;23;20008;-78
2021/05/28 02:10:53;;;;;;;4.53;3.30;;;;;;;;;;6149757;23;19993;-80
2021/05/28 02:13:38;;;;;;;4.93;2.85;;;;;;;;;;6148818;23;20009;-80
2021/05/28 02:16:23;;;;;;;5.10;3.33;;;;;;;;;;6150541;23;20574;-80
2021/05/28 02:19:09;;;;;;;5.72;2.83;;;;;;;;;;6169694;23;20020;-80
2021/05/28 02:21:54;;;;;;;6.82;3.38;;;;;;;;;;6149833;23;20419;-79
2021/05/28 02:24:39;;;;;;;5.72;3.38;;;;;;;;;;6148289;23;20477;-80
2021/05/28 02:27:25;;;;;;;3.42;2.88;;;;;;;;;;6150777;23;20438;-79
2021/05/28 02:30:11;;;;;;;6.07;3.15;;;;;;;;;;6147937;23;20001;-80
2021/05/28 02:32:57;;;;;;;5.57;2.83;;;;;;;;;;6150412;23;20008;-80
2021/05/28 02:35:42;;;;;;;4.57;2.90;;;;;;;;;;6147649;23;20012;-80
2021/05/28 02:38:27;;;;;;;4.15;2.90;;;;;;;;;;6150319;23;19993;-80
2021/05/28 02:41:12;;;;;;;4.38;3.00;;;;;;;;;;6149406;23;20005;-79
2021/05/28 02:43:58;;;;;;;4.95;3.08;;;;;;;;;;6148160;23;20001;-79
2021/05/28 02:46:43;;;;;;;4.10;3.03;;;;;;;;;;6148885;23;20071;-80
2021/05/28 02:49:28;;;;;;;5.53;3.45;;;;;;;;;;6149880;23;19997;-81
2021/05/28 02:52:14;;;;;;;4.50;3.13;;;;;;;;;;6149514;23;20080;-81
2021/05/28 02:55:00;;;;;;;6.10;3.15;;;;;;;;;;6149421;23;20009;-81
2021/05/28 02:57:45;;;;;;;5.45;3.15;;;;;;;;;;6150250;23;19994;-80
2021/05/28 03:00:30;;;;;;;4.95;3.35;;;;;;;;;;6148429;23;20470;-81
2021/05/28 03:03:15;;;;;;;5.25;2.80;;;;;;;;;;6150253;23;20005;-81
2021/05/28 03:06:00;;;;;;;4.03;3.10;;;;;;;;;;6148646;23;20032;-80
2021/05/28 03:08:46;;;;;;;4.68;2.92;;;;;;;;;;6167243;23;20005;-80
2021/05/28 03:11:31;;;;;;;7.15;3.10;;;;;;;;;;6146611;23;20057;-80
2021/05/28 03:14:17;;;;;;;5.10;2.70;;;;;;;;;;6170458;23;20063;-80
2021/05/28 03:17:02;;;;;;;8.05;3.13;;;;;;;;;;6169732;23;19993;-80
2021/05/28 03:19:48;;;;;;;4.65;3.17;;;;;;;;;;6149571;23;20315;-80
2021/05/28 03:22:33;;;;;;;3.83;2.60;;;;;;;;;;6148851;23;20028;-80
2021/05/28 03:25:19;;;;;;;4.65;3.03;;;;;;;;;;6168239;23;20001;-79
2021/05/28 03:28:04;;;;;;;5.05;2.63;;;;;;;;;;6148331;23;20068;-79
2021/05/28 03:30:50;;;;;;;4.97;3.40;;;;;;;;;;6149153;23;20009;-80
2021/05/28 03:33:35;;;;;;;6.55;2.88;;;;;;;;;;6148409;23;20294;-78
2021/05/28 03:36:21;;;;;;;4.40;2.50;;;;;;;;;;6149890;23;19997;-79
2021/05/28 03:39:06;;;;;;;3.67;2.50;;;;;;;;;;6148639;23;19997;-79
2021/05/28 03:41:51;;;;;;;6.07;2.95;;;;;;;;;;6170390;23;20072;-79
2021/05/28 03:44:36;;;;;;;3.65;2.90;;;;;;;;;;6170425;23;20001;-79
2021/05/28 03:47:22;;;;;;;5.25;2.80;;;;;;;;;;6148194;23;20001;-80
2021/05/28 03:50:07;;;;;;;6.35;2.92;;;;;;;;;;6148498;23;20017;-79
2021/05/28 03:52:52;;;;;;;5.70;2.70;;;;;;;;;;6147834;23;20012;-80
2021/05/28 03:55:38;;;;;;;4.18;2.92;;;;;;;;;;6171017;23;20046;-79
2021/05/28 03:58:23;;;;;;;4.88;2.90;;;;;;;;;;6148152;23;20002;-78
2021/05/28 04:01:08;;;;;;;5.38;2.95;;;;;;;;;;6147882;23;20068;-79
2021/05/28 04:03:53;;;;;;;6.95;2.85;;;;;;;;;;6148394;23;20081;-79
2021/05/28 04:06:39;;;;;;;5.47;3.00;;;;;;;;;;6148718;23;20080;-79
2021/05/28 04:09:24;;;;;;;4.78;3.03;;;;;;;;;;6145588;23;20002;-81
2021/05/28 04:12:09;;;;;;;5.25;3.15;;;;;;;;;;6150007;23;20283;-80
2021/05/28 04:14:54;;;;;;;7.10;3.25;;;;;;;;;;6169027;23;20005;-78
2021/05/28 04:17:40;;;;;;;5.07;2.90;;;;;;;;;;6149833;23;20001;-79
2021/05/28 04:20:25;;;;;;;9.60;3.17;;;;;;;;;;6148429;23;20079;-80
2021/05/28 04:23:10;;;;;;;5.97;3.60;;;;;;;;;;6169861;23;20051;-79
2021/05/28 04:25:55;;;;;;;12.32;3.75;;;;;;;;;;6149168;23;20457;-80
2021/05/28 04:28:41;;;;;;;5.47;3.22;;;;;;;;;;6148352;23;20082;-79
2021/05/28 04:31:26;;;;;;;8.75;4.40;;;;;;;;;;6149978;23;20002;-81
2021/05/28 04:34:11;;;;;;;6.35;3.72;;;;;;;;;;6147446;23;20005;-79
2021/05/28 04:36:56;;;;;;;4.57;3.70;;;;;;;;;;6169023;23;20362;-80
2021/05/28 04:39:41;;;;;;;7.50;3.78;;;;;;;;;;6168319;23;20076;-78
2021/05/28 04:42:26;;;;;;;5.95;3.65;;;;;;;;;;6148802;23;19993;-79
2021/05/28 04:45:12;;;;;;;11.73;4.45;;;;;;;;;;6146807;23;20382;-80
2021/05/28 04:48:00;;;;;;;7.32;3.42;;;;;;;;;;6146447;23;20417;-79
2021/05/28 04:50:45;;;;;;;6.82;4.25;;;;;;;;;;6147373;23;20436;-79
2021/05/28 04:53:31;;;;;;;7.03;4.28;;;;;;;;;;6169293;23;20005;-78
2021/05/28 04:56:17;;;;;;;8.38;4.05;;;;;;;;;;6146949;23;20001;-79
2021/05/28 04:59:03;;;;;;;5.82;3.13;;;;;;;;;;6167591;23;19994;-79
2021/05/28 05:01:48;;;;;;;8.38;4.30;;;;;;;;;;6146712;23;20048;-78
2021/05/28 05:04:33;;;;;;;10.18;4.45;;;;;;;;;;6148925;23;20002;-79
2021/05/28 05:07:18;;;;;;;5.97;4.15;;;;;;;;;;6168238;23;20001;-78
2021/05/28 05:10:04;;;;;;;7.63;4.18;;;;;;;;;;6145513;23;20008;-80
2021/05/28 05:12:49;;;;;;;8.70;4.60;;;;;;;;;;6169477;23;20088;-79
2021/05/28 05:15:34;;;;;;;9.27;4.97;;;;;;;;;;6147131;23;20006;-79
2021/05/28 05:18:20;;;;;;;11.00;5.43;;;;;;;;;;6169555;23;20018;-79
2021/05/28 05:21:05;;;;;;;10.32;4.68;;;;;;;;;;6167894;23;20056;-77
2021/05/28 05:23:50;;;;;;;7.50;4.57;;;;;;;;;;6147174;23;20002;-81
2021/05/28 05:26:35;;;;;;;8.40;4.85;;;;;;;;;;6147383;23;19998;-80
2021/05/28 05:29:21;;;;;;;9.95;5.32;;;;;;;;;;6168012;23;20093;-80
2021/05/28 05:32:06;;;;;;;7.43;4.63;;;;;;;;;;6144962;23;20081;-80
2021/05/28 05:34:53;;;;;;;12.32;5.50;;;;;;;;;;6147982;23;20001;-78
2021/05/28 05:37:39;;;;;;;10.88;6.00;;;;;;;;;;6149522;23;19998;-79
2021/05/28 05:40:24;;;;;;;12.10;6.75;;;;;;;;;;6151749;23;20330;-78
2021/05/28 05:43:09;;;;;;;11.52;6.20;;;;;;;;;;6170664;23;19994;-81
2021/05/28 05:45:55;;;;;;;13.55;7.25;;;;;;;;;;6149820;23;19994;-80
2021/05/28 05:48:41;;;;;;;13.07;7.43;;;;;;;;;;6149242;23;20446;-79
2021/05/28 05:51:26;;;;;;;10.43;6.70;;;;;;;;;;6148354;23;19995;-78
2021/05/28 05:54:11;;;;;;;12.05;7.15;;;;;;;;;;6150678;23;20005;-78
2021/05/28 05:56:57;;;;;;;12.43;7.68;;;;;;;;;;6171712;23;20001;-79
2021/05/28 05:59:42;;;;;;;10.73;7.00;;;;;;;;;;6150972;23;19998;-78
2021/05/28 06:02:27;;;;;;;9.95;6.68;;;;;;;;;;6151932;23;20374;-82
2021/05/28 06:05:13;;;;;;;12.70;6.60;;;;;;;;;;6150190;23;20366;-79
2021/05/28 06:07:58;;;;;;;14.48;8.18;;;;;;;;;;6147369;23;20024;-80
2021/05/28 06:10:43;;;;;;;9.68;6.47;;;;;;;;;;6148214;23;20104;-79
2021/05/28 06:13:28;;;;;;;12.50;7.57;;;;;;;;;;6149285;23;19998;-79
2021/05/28 06:16:14;;;;;;;13.43;7.75;;;;;;;;;;6151174;23;20001;-80
2021/05/28 06:18:59;;;;;;;39.95;28.27;;;;;;;;;;6149252;23;20027;-80
2021/05/28 06:21:44;;;;;;;27.33;16.20;;;;;;;;;;6150622;23;19998;-81
2021/05/28 06:24:29;;;;;;;13.27;7.50;;;;;;;;;;6169234;23;20006;-80
2021/05/28 06:27:15;;;;;;;13.52;6.70;;;;;;;;;;6141765;23;20378;-79
2021/05/28 06:30:00;;;;;;;12.18;6.57;;;;;;;;;;6150431;23;20514;-83
2021/05/28 06:32:46;;;;;;;10.48;7.35;;;;;;;;;;6166482;23;20001;-81
2021/05/28 06:35:34;;;;;;;15.68;7.13;;;;;;;;;;6148732;23;20079;-83
2021/05/28 06:38:20;;;;;;;11.13;6.63;;;;;;;;;;6151620;23;20001;-80
2021/05/28 06:41:06;;;;;;;12.95;6.40;;;;;;;;;;6150934;23;19997;-79
2021/05/28 06:43:51;;;;;;;14.77;6.68;;;;;;;;;;6150348;23;20005;-79
2021/05/28 06:46:36;;;;;;;12.60;6.53;;;;;;;;;;6150771;23;20080;-78
2021/05/28 06:49:21;;;;;;;12.65;7.53;;;;;;;;;;6147520;23;20013;-78
2021/05/28 06:52:07;;;;;;;34.35;27.00;;;;;;;;;;6149721;23;19997;-77
2021/05/28 06:54:52;;;;;;;17.85;10.70;;;;;;;;;;6147369;23;20013;-78
2021/05/28 06:57:37;;;;;;;10.52;6.55;;;;;;;;;;6147365;23;20129;-78
2021/05/28 07:00:22;;;;;;;11.13;6.47;;;;;;;;;;6166457;23;20002;-78
2021/05/28 07:03:07;;;;;;;12.38;6.22;;;;;;;;;;6149262;23;19997;-78
2021/05/28 07:05:53;;;;;;;10.77;5.22;;;;;;;;;;6148380;23;19998;-76
2021/05/28 07:08:38;;;;;;;11.95;6.22;;;;;;;;;;6147883;23;20080;-77
2021/05/28 07:11:24;;;;;;;11.65;6.25;;;;;;;;;;6148055;23;20005;-77
2021/05/28 07:14:09;;;;;;;38.45;26.05;;;;;;;;;;6149423;23;20056;-78
2021/05/28 07:16:54;;;;;;;17.88;12.40;;;;;;;;;;6148732;23;20021;-77
2021/05/28 07:19:40;;;;;;;9.18;5.68;;;;;;;;;;6149089;23;20013;-77
2021/05/28 07:22:25;;;;;;;9.50;5.45;;;;;;;;;;6149078;23;20001;-79
2021/05/28 07:25:11;;;;;;;7.85;4.88;;;;;;;;;;6149305;23;20056;-78
2021/05/28 07:27:56;;;;;;;9.13;4.65;;;;;;;;;;6148876;23;20508;-79
2021/05/28 07:30:41;;;;;;;7.65;4.68;;;;;;;;;;6145408;23;20001;-77
2021/05/28 07:33:27;;;;;;;8.35;4.85;;;;;;;;;;6149425;23;20101;-76
2021/05/28 07:36:12;;;;;;;9.77;4.72;;;;;;;;;;6148928;23;20008;-79
2021/05/28 07:38:57;;;;;;;8.25;4.90;;;;;;;;;;6149050;23;20009;-76
2021/05/28 07:41:42;;;;;;;10.00;5.40;;;;;;;;;;6147951;23;20324;-76
2021/05/28 07:44:28;;;;;;;11.88;5.13;;;;;;;;;;6149757;23;20003;-77
2021/05/28 07:47:13;;;;;;;9.52;5.20;;;;;;;;;;6147591;23;20009;-75
2021/05/28 07:50:00;;;;;;;10.07;5.47;;;;;;;;;;6148400;23;20080;-77
2021/05/28 07:52:45;;;;;;;23.85;17.85;;;;;;;;;;6147382;23;20002;-77
2021/05/28 07:55:31;;;;;;;13.00;8.05;;;;;;;;;;6169733;23;20068;-77
2021/05/28 07:58:16;;;;;;;9.10;5.55;;;;;;;;;;6147574;23;20001;-77
2021/05/28 08:01:02;;;;;;;12.43;6.72;;;;;;;;;;6169140;23;20390;-78
2021/05/28 08:03:47;;;;;;;11.25;6.20;;;;;;;;;;6148167;23;20005;-77
2021/05/28 08:06:32;;;;;;;12.75;5.10;;;;;;;;;;6127769;23;20012;-77
2021/05/28 08:09:18;;;;;;;10.77;5.65;;;;;;;;;;6147237;23;20029;-77
2021/05/28 08:12:03;;;;;;;8.93;5.15;;;;;;;;;;6148569;23;20071;-79
2021/05/28 08:14:49;;;;;;;9.18;4.93;;;;;;;;;;6149041;23;20002;-79
2021/05/28 08:17:34;;;;;;;12.32;5.15;;;;;;;;;;6147448;23;20395;-78
2021/05/28 08:20:19;;;;;;;9.23;4.68;;;;;;;;;;6144832;23;20026;-79
2021/05/28 08:23:04;;;;;;;8.88;4.68;;;;;;;;;;6147459;23;20019;-79
2021/05/28 08:25:50;;;;;;;9.80;4.90;;;;;;;;;;6148154;23;20004;-77
2021/05/28 08:28:35;;;;;;;7.38;4.60;;;;;;;;;;6147076;23;19993;-77
2021/05/28 08:31:21;;;;;;;9.13;4.75;;;;;;;;;;6148914;23;20080;-80
2021/05/28 08:34:06;;;;;;;10.48;4.47;;;;;;;;;;6168809;23;20006;-78
2021/05/28 08:36:51;;;;;;;7.07;3.33;;;;;;;;;;6148595;23;20323;-78
2021/05/28 08:39:36;;;;;;;7.45;3.78;;;;;;;;;;6144871;23;20076;-78
2021/05/28 08:42:22;;;;;;;7.65;3.92;;;;;;;;;;6148514;23;20084;-79
2021/05/28 08:45:07;;;;;;;9.52;4.60;;;;;;;;;;6146974;23;20001;-80
2021/05/28 08:47:52;;;;;;;8.95;4.45;;;;;;;;;;6149425;23;20100;-83
2021/05/28 08:50:38;;;;;;;8.60;4.20;;;;;;;;;;6168107;23;20334;-80
2021/05/28 08:53:25;;;;;;;8.27;4.28;;;;;;;;;;6148529;23;20032;-81
2021/05/28 08:56:10;;;;;;;7.47;4.90;;;;;;;;;;6147985;23;20084;-81
2021/05/28 08:58:55;;;;;;;7.15;3.95;;;;;;;;;;6169027;23;20382;-80
2021/05/28 09:01:40;;;;;;;8.73;4.40;;;;;;;;;;6169803;23;20005;-81
2021/05/28 09:04:26;;;;;;;9.23;4.53;;;;;;;;;;6147605;23;20009;-82
2021/05/28 09:07:22;;;;;;;11.93;4.68;;;;;;;;;;6148330;23;20001;-79
2021/05/28 09:10:26;;;;;;;8.35;4.47;;;;;;;;;;6147239;23;20333;-78
2021/05/28 09:13:12;;;;;;;8.45;3.85;;;;;;;;;;6148039;23;20340;-79
2021/05/28 09:16:04;;;;;;;6.75;3.53;;;;;;;;;;6163143;23;19997;-79
2021/05/28 09:18:53;;;;;;;9.70;4.07;;;;;;;;;;6148645;23;20037;-78
2021/05/28 09:21:38;;;;;;;9.30;4.25;;;;;;;;;;6167622;23;19998;-79
2021/05/28 09:24:35;;;;;;;8.23;5.18;;;;;;;;;;6167514;23;20021;-78
2021/05/28 09:27:23;;;;;;;7.95;4.78;;;;;;;;;;6146953;23;20039;-79
2021/05/28 09:30:13;;;;;;;10.60;4.30;;;;;;;;;;6148217;23;20005;-80
2021/05/28 09:32:58;;;;;;;8.43;3.92;;;;;;;;;;6173216;23;20009;-81
2021/05/28 09:35:43;;;;;;;11.20;4.82;;;;;;;;;;6149456;23;20080;-80
2021/05/28 09:38:28;;;;;;;8.18;4.22;;;;;;;;;;6174052;23;19997;-82
2021/05/28 09:41:14;;;;;;;6.82;4.30;;;;;;;;;;6149834;23;20005;-82
2021/05/28 09:44:28;;;;;;;7.70;4.20;;;;;;;;;;6151116;23;20002;-81
2021/05/28 09:47:17;;;;;;;9.57;4.65;;;;;;;;;;6137185;23;20001;-81
2021/05/28 09:50:02;;;;;;;8.98;4.93;;;;;;;;;;6172771;23;20002;-82
2021/05/28 09:52:49;;;;;;;6.60;4.10;;;;;;;;;;6149778;23;20419;-81
2021/05/28 09:55:36;;;;;;;6.47;4.55;;;;;;;;;;6149649;23;20029;-82
2021/05/28 09:58:22;;;;;;;27.15;16.80;;;;;;;;;;6151697;23;19998;-81
2021/05/28 10:01:08;;;;;;;8.52;5.97;;;;;;;;;;6151114;23;20052;-81
2021/05/28 10:04:09;;;;;;;6.75;3.92;;;;;;;;;;6151807;23;20355;-81
2021/05/28 10:06:54;;;;;;;7.38;4.70;;;;;;;;;;6147672;23;20260;-80
2021/05/28 10:09:40;;;;;;;6.15;3.92;;;;;;;;;;6147621;23;20005;-80
2021/05/28 10:12:25;;;;;;;5.88;3.97;;;;;;;;;;6145781;23;20399;-80
2021/05/28 10:15:12;;;;;;;9.18;5.95;;;;;;;;;;6147593;23;20480;-81
2021/05/28 10:17:58;;;;;;;10.73;6.75;;;;;;;;;;6146466;23;20020;-80
2021/05/28 10:20:44;;;;;;;9.43;5.38;;;;;;;;;;6146936;23;20148;-79
2021/05/28 10:23:29;;;;;;;8.68;4.43;;;;;;;;;;6146557;23;20682;-80
2021/05/28 10:26:15;;;;;;;7.90;4.60;;;;;;;;;;6168912;23;20387;-81
2021/05/28 10:29:01;;;;;;;7.68;4.97;;;;;;;;;;6169091;23;20012;-82
2021/05/28 10:31:55;;;;;;;5.45;4.20;;;;;;;;;;6169483;23;20004;-80
2021/05/28 10:34:59;;;;;;;9.45;4.63;;;;;;;;;;6147218;23;20010;-80
2021/05/28 10:37:45;;;;;;;7.47;4.30;;;;;;;;;;6148439;23;20338;-80
2021/05/28 10:40:31;;;;;;;6.22;3.78;;;;;;;;;;6148933;23;20009;-81
2021/05/28 10:43:19;;;;;;;5.85;3.42;;;;;;;;;;6164908;23;20430;-80
2021/05/28 10:46:09;;;;;;;6.47;3.90;;;;;;;;;;6167530;23;19998;-80
2021/05/28 10:49:10;;;;;;;4.75;3.78;;;;;;;;;;6148436;23;19997;-79
2021/05/28 10:51:55;;;;;;;6.72;3.60;;;;;;;;;;6149950;23;20001;-80
2021/05/28 10:54:42;;;;;;;5.97;3.92;;;;;;;;;;6147691;23;20006;-80
2021/05/28 10:57:31;;;;;;;12.77;7.85;;;;;;;;;;6150047;23;20002;-80
2021/05/28 11:00:21;;;;;;;6.75;3.33;;;;;;;;;;6149485;23;20060;-80
2021/05/28 11:03:10;;;;;;;6.60;3.80;;;;;;;;;;6150888;23;20397;-80
2021/05/28 11:05:56;;;;;;;;;;;;;;;;;;6149775;23;20382;-80
2021/05/28 11:08:43;;;;;;;4.90;3.40;;;;;;;;;;6149320;23;19928;-79
2021/05/28 11:11:37;;;;;;;5.05;2.97;;;;;;;;;;6148963;23;20001;-80
2021/05/28 11:14:23;;;;;;;7.57;3.30;;;;;;;;;;6168839;23;20494;-79
2021/05/28 11:17:08;;;;;;;4.97;3.30;;;;;;;;;;6149586;23;20334;-82
2021/05/28 11:20:00;;;;;;;5.07;3.17;;;;;;;;;;6170281;23;20510;-81
2021/05/28 11:22:45;;;;;;;6.25;3.10;;;;;;;;;;6150415;23;20085;-81
2021/05/28 11:25:32;;;;;;;4.55;2.45;;;;;;;;;;6136049;23;20009;-80
2021/05/28 11:28:17;;;;;;;7.80;3.25;;;;;;;;;;6149182;23;19997;-79
2021/05/28 11:31:06;;;;;;;3.70;2.85;;;;;;;;;;6147971;23;19997;-80
2021/05/28 11:33:55;;;;;;;8.05;2.95;;;;;;;;;;6149827;23;20005;-79
2021/05/28 11:36:42;;;;;;;5.80;2.95;;;;;;;;;;6144100;23;19994;-80
2021/05/28 11:39:29;;;;;;;4.85;3.00;;;;;;;;;;6146941;23;19997;-79
2021/05/28 11:42:18;;;;;;;5.25;3.45;;;;;;;;;;6168976;23;19997;-79
2021/05/28 11:45:05;;;;;;;9.45;3.45;;;;;;;;;;6149123;23;20072;-79
2021/05/28 11:47:53;;;;;;;3.72;2.70;;;;;;;;;;6148435;23;20450;-79
2021/05/28 11:50:41;;;;;;;7.43;4.40;;;;;;;;;;6149010;23;20162;-79
2021/05/28 11:53:30;;;;;;;7.05;3.22;;;;;;;;;;6149546;23;20001;-80
2021/05/28 11:56:16;;;;;;;12.70;2.95;;;;;;;;;;6148579;23;20521;-80
2021/05/28 11:59:01;;;;;;;6.25;3.10;;;;;;;;;;6128910;23;20322;-79
2021/05/28 12:01:46;;;;;;;10.13;3.80;;;;;;;;;;6168697;23;20341;-80
2021/05/28 12:04:31;;;;;;;5.63;2.88;;;;;;;;;;6173036;23;20068;-80
2021/05/28 12:07:16;;;;;;;5.97;2.95;;;;;;;;;;6166889;23;20005;-80
2021/05/28 12:10:06;;;;;;;7.60;2.97;;;;;;;;;;6149820;23;20144;-80
2021/05/28 12:12:51;;;;;;;;;;;;;;;;;;6148156;23;20426;-80
2021/05/28 12:15:38;;;;;;;4.75;2.63;;;;;;;;;;6169568;23;20000;-79
2021/05/28 12:18:27;;;;;;;7.18;2.83;;;;;;;;;;6148349;23;20029;-80
2021/05/28 12:21:13;;;;;;;6.20;3.00;;;;;;;;;;6144842;23;20033;-80
2021/05/28 12:23:58;;;;;;;3.47;2.72;;;;;;;;;;6147059;23;20088;-79
2021/05/28 12:26:43;;;;;;;3.75;2.70;;;;;;;;;;6147110;23;20001;-80
2021/05/28 12:29:29;;;;;;;4.43;2.45;;;;;;;;;;6147620;23;20442;-80
2021/05/28 12:32:14;;;;;;;4.90;2.75;;;;;;;;;;6169353;23;20001;-79
2021/05/28 12:35:00;;;;;;;4.78;3.20;;;;;;;;;;6148682;23;20009;-80
2021/05/28 12:38:05;;;;;;;5.22;2.60;;;;;;;;;;6146659;23;19997;-80
2021/05/28 12:40:51;;;;;;;5.13;2.80;;;;;;;;;;6149315;23;20439;-80
2021/05/28 12:43:37;;;;;;;8.15;2.63;;;;;;;;;;6147296;23;20005;-82
2021/05/28 12:46:24;;;;;;;9.18;3.03;;;;;;;;;;6148600;23;20477;-83
2021/05/28 12:49:10;;;;;;;3.88;2.30;;;;;;;;;;6147670;23;20025;-80
2021/05/28 12:51:55;;;;;;;3.95;2.35;;;;;;;;;;6148916;23;20687;-81
2021/05/28 12:54:40;;;;;;;4.32;2.45;;;;;;;;;;6144643;23;20002;-79
2021/05/28 12:57:25;;;;;;;5.35;2.47;;;;;;;;;;6148438;23;20002;-79
2021/05/28 13:00:11;;;;;;;4.72;2.70;;;;;;;;;;6144814;23;20005;-80
2021/05/28 13:02:57;;;;;;;3.78;2.58;;;;;;;;;;6148831;23;20001;-81
2021/05/28 13:05:42;;;;;;;11.60;8.77;;;;;;;;;;6168396;23;20001;-80
2021/05/28 13:08:34;;;;;;;6.93;4.40;;;;;;;;;;6148502;23;20081;-82
2021/05/28 13:11:19;;;;;;;6.70;3.22;;;;;;;;;;6148563;23;20008;-85
2021/05/28 13:14:04;;;;;;;3.78;2.55;;;;;;;;;;6166542;23;20536;-82
2021/05/28 13:16:49;;;;;;;2.75;2.05;;;;;;;;;;6148242;23;20473;-81
2021/05/28 13:19:47;;;;;;;3.33;2.17;;;;;;;;;;6147508;23;20818;-84
2021/05/28 13:22:32;;;;;;;4.57;2.08;;;;;;;;;;6150795;23;19998;-80
2021/05/28 13:25:26;;;;;;;1.95;1.65;;;;;;;;;;6149518;23;20080;-81
2021/05/28 13:28:13;;;;;;;7.63;2.38;;;;;;;;;;6169511;23;19998;-81
2021/05/28 13:31:13;;;;;;;4.97;2.40;;;;;;;;;;6148424;23;20005;-80
2021/05/28 13:34:06;;;;;;;3.20;2.25;;;;;;;;;;6148724;23;20052;-82
2021/05/28 13:36:51;;;;;;;2.92;2.00;;;;;;;;;;6148097;23;19993;-80
2021/05/28 13:39:37;;;;;;;8.18;2.65;;;;;;;;;;6148159;23;19998;-81
2021/05/28 13:42:25;;;;;;;3.13;2.20;;;;;;;;;;6148218;23;20155;-82
2021/05/28 13:45:14;;;;;;;5.97;2.58;;;;;;;;;;6147660;23;20369;-81
2021/05/28 13:47:59;;;;;;;3.67;2.50;;;;;;;;;;6147741;23;20441;-81
2021/05/28 13:50:45;;;;;;;4.18;2.22;;;;;;;;;;6144833;23;20001;-83
2021/05/28 13:53:31;;;;;;;5.45;2.20;;;;;;;;;;6146203;23;20008;-81
2021/05/28 13:56:16;;;;;;;4.40;1.85;;;;;;;;;;6147592;23;20005;-82
2021/05/28 13:59:01;;;;;;;3.30;1.80;;;;;;;;;;6152267;23;20005;-80
2021/05/28 14:01:47;;;;;;;3.90;1.83;;;;;;;;;;6151553;23;19998;-82
2021/05/28 14:04:32;;;;;;;3.65;2.00;;;;;;;;;;6171199;23;20001;-83
2021/05/28 14:07:18;;;;;;;6.70;2.33;;;;;;;;;;6168170;23;20001;-82
2021/05/28 14:10:04;;;;;;;6.05;3.75;;;;;;;;;;6151650;23;20074;-83
2021/05/28 14:12:49;;;;;;;3.80;2.67;;;;;;;;;;6148936;23;20005;-80
2021/05/28 14:15:35;;;;;;;6.85;2.20;;;;;;;;;;6149697;23;20091;-81
2021/05/28 14:18:20;;;;;;;4.82;2.25;;;;;;;;;;6147916;23;20014;-80
2021/05/28 14:21:06;;;;;;;3.45;1.90;;;;;;;;;;6171994;23;19997;-80
2021/05/28 14:23:51;;;;;;;2.08;1.58;;;;;;;;;;6148867;23;20481;-80
2021/05/28 14:26:36;;;;;;;1.85;1.52;;;;;;;;;;6150871;23;20006;-80
2021/05/28 14:29:22;;;;;;;2.92;1.63;;;;;;;;;;6149885;23;20460;-80
2021/05/28 14:32:07;;;;;;;3.60;1.90;;;;;;;;;;6147892;23;20005;-83
2021/05/28 14:34:52;;;;;;;5.28;1.88;;;;;;;;;;6148145;23;20033;-81
2021/05/28 14:37:38;;;;;;;5.57;2.33;;;;;;;;;;6169182;23;20717;-80
2021/05/28 14:40:23;;;;;;;3.63;1.92;;;;;;;;;;6150668;23;20004;-83
2021/05/28 14:43:09;;;;;;;3.80;1.90;;;;;;;;;;6146312;23;20088;-82
2021/05/28 14:45:54;;;;;;;2.42;1.73;;;;;;;;;;6168891;23;20002;-78
2021/05/28 14:48:39;;;;;;;3.38;1.92;;;;;;;;;;6145556;23;20005;-79
2021/05/28 14:51:25;;;;;;;9.15;3.72;;;;;;;;;;6150084;23;20048;-78
2021/05/28 14:54:10;;;;;;;5.20;2.03;;;;;;;;;;6147014;23;20009;-79
2021/05/28 14:56:56;;;;;;;4.22;1.80;;;;;;;;;;6148465;23;20002;-79
2021/05/28 14:59:41;;;;;;;5.50;1.90;;;;;;;;;;6149201;23;20000;-79
2021/05/28 15:02:26;;;;;;;2.67;1.98;;;;;;;;;;6149366;23;19994;-79
2021/05/28 15:05:12;;;;;;;7.70;2.10;;;;;;;;;;6147471;23;20672;-79
2021/05/28 15:07:58;;;;;;;3.03;1.70;;;;;;;;;;6170699;23;20431;-80
2021/05/28 15:10:44;;;;;;;7.18;2.08;;;;;;;;;;6143783;23;20052;-79
2021/05/28 15:13:30;;;;;;;2.47;1.65;;;;;;;;;;6148196;23;20097;-79
2021/05/28 15:16:15;;;;;;;4.60;2.30;;;;;;;;;;6149772;23;20665;-80
2021/05/28 15:19:00;;;;;;;2.85;1.70;;;;;;;;;;6144895;23;20017;-79
2021/05/28 15:21:50;;;;;;;3.65;1.67;;;;;;;;;;6147199;23;20036;-80
2021/05/28 15:24:35;;;;;;;4.07;2.90;;;;;;;;;;6147974;23;20780;-80
2021/05/28 15:27:21;;;;;;;4.63;1.98;;;;;;;;;;6149466;23;20335;-79
2021/05/28 15:30:07;;;;;;;5.70;1.95;;;;;;;;;;6148068;23;19997;-80
2021/05/28 15:32:52;;;;;;;3.78;1.70;;;;;;;;;;6170237;23;20067;-79
2021/05/28 15:35:38;;;;;;;4.30;1.52;;;;;;;;;;6128056;23;20056;-81
2021/05/28 15:38:23;;;;;;;4.68;1.70;;;;;;;;;;6170038;23;19994;-80
2021/05/28 15:41:09;;;;;;;2.50;1.60;;;;;;;;;;6168332;23;19997;-80
2021/05/28 15:43:54;;;;;;;5.10;1.98;;;;;;;;;;6149083;23;20437;-79
2021/05/28 15:46:41;;;;;;;2.58;1.52;;;;;;;;;;6148220;23;20632;-79
2021/05/28 15:49:26;;;;;;;5.72;1.77;;;;;;;;;;6149675;23;20002;-81
2021/05/28 15:52:12;;;;;;;2.47;1.70;;;;;;;;;;6147184;23;20008;-80
2021/05/28 15:54:57;;;;;;;4.40;1.35;;;;;;;;;;6149150;23;20442;-78
2021/05/28 15:57:42;;;;;;;1.83;1.20;;;;;;;;;;6147937;23;20006;-80
2021/05/28 16:00:27;;;;;;;8.77;3.08;;;;;;;;;;6148712;23;20073;-81
2021/05/28 16:03:14;;;;;;;2.20;1.70;;;;;;;;;;6149661;23;20000;-80
2021/05/28 16:05:59;;;;;;;3.80;2.20;;;;;;;;;;6147609;23;20001;-80
2021/05/28 16:08:44;;;;;;;2.78;1.50;;;;;;;;;;6149281;23;20370;-79
2021/05/28 16:11:29;;;;;;;4.25;1.70;;;;;;;;;;6168490;23;20021;-79
2021/05/28 16:14:15;;;;;;;6.38;1.98;;;;;;;;;;6148340;23;20002;-78
2021/05/28 16:17:00;;;;;;;8.60;1.80;;;;;;;;;;6148185;23;20258;-78
2021/05/28 16:19:45;;;;;;;3.10;1.40;;;;;;;;;;6148918;23;20018;-79
2021/05/28 16:22:31;;;;;;;2.88;1.30;;;;;;;;;;6147070;23;20024;-80
2021/05/28 16:25:16;;;;;;;2.17;1.70;;;;;;;;;;6146604;23;20024;-82
2021/05/28 16:28:02;;;;;;;4.90;1.73;;;;;;;;;;6169252;23;20056;-83
2021/05/28 16:30:48;;;;;;;4.13;1.70;;;;;;;;;;6149638;23;19998;-85
2021/05/28 16:33:33;;;;;;;5.60;1.50;;;;;;;;;;6148260;23;20765;-84